Newton, TX

1:02 AM CDT on April 21, 2015 (GMT -0500)
North Jasper | | Change Station
CLOSE
Current Station
Personal Weather Station
Location: Jasper, TX
Elevation: 308 ft
Nearby Weather Stations
Active Advisory: Flood Warning

Elev 308 ft 30.93 °N, 94.00 °W | Updated 5 minutes ago

Mostly Cloudy
Mostly Cloudy
56.0 °F
Feels Like 56.0 °F
N
0.0
Wind Variable Wind from East
Gusts 0.0 mph

Today
High -- | Low -- °F
--% Chance of Precip.
Yesterday
High -- | Low -- °F
Precip. -- in
6:41 AM 7:46 PM
Waxing Crescent, 8% visible
Pressure 30.04 in
Visibility 10.0 miles
Clouds Mostly Cloudy 10000 ft
Mostly Cloudy 12000 ft
Dew Point 53 °F
Humidity 89%
Rainfall 0.00 in
Snow Depth Not available.
UV 0 out of 12
Pollen 8.00 out of 12
Air Quality Not available.
Flu Activity Local Activity
METAR KJAS 210555Z AUTO 00000KT 10SM BKN100 BKN120 15/14 A3004 RMK AO2 T01480139

More Conditions Fewer Conditions

Pressure 30.04 in
Visibility 10.0 miles
Clouds Mostly Cloudy 10000 ft
Mostly Cloudy 12000 ft
Dew Point 53 °F
Humidity 89%
Rainfall 0.00 in
Snow Depth Not available.
UV 0 out of 12
Pollen 8.00 out of 12
Air Quality Not available.
Flu Activity Local Activity
METAR KJAS 210555Z AUTO 00000KT 10SM BKN100 BKN120 15/14 A3004 RMK AO2 T01480139

More Conditions Fewer Conditions

10-Day Weather Forecast

Almanac

Astronomy

Apr. 21, 2015 Rise Set
Actual Time
Civil Twilight
Nautical Twilight
Astronomical Twilight
Moon
Length of Visible Light
Length of Day
Tomorrow will be .
, % of the Moon is Illuminated

Today's Extremes

State Highs State Lows

Community

WunderPhotos

Upload Photos

1,815,318 photos uploaded!

WunderBlogs® & News

Nearby

Air Quality

  Air Quality AQ Index Pollutant
Not available.

Snow Depth

Station Depth Elevation

Earthquake Activity

City Distance Mag. Time & Date
Minimum magnitude displayed is 2.5.

Coastal Water Temperatures

Place Temperature

Stations

Nearby Weather Stations

Station Location Temp. Windchill Dew Point Humidity Wind Precip. Elev Updated Type
                   
Flood Warning
Statement as of 10:00 PM CDT on April 20, 2015

The Flood Warning continues for
the Sabine River near Deweyville.
* Until Friday morning... or until the warning is cancelled.
* At 8:45 PM Monday the stage was 24.4 feet.
* Minor flooding is occurring and minor flooding is forecast.
* Flood stage is 24.0 feet.
* Forecast... the river will continue to fall to below flood stage by
Thursday evening.
* Impact... at stages near 24.0 feet... minor lowland flooding will
occur.


Lat... Lon 3061 9376 3031 9381 3008 9378 3005 9367
      3044 9364 3057 9363